DLH163 EDXW-EDDF
Flight info
| Callsign | DLH163 |
|---|---|
| Flight time | 0h 57m |
| Altitude | 39000 |
| Route | OLDIP1B OLDIP DCT BADOS DCT OMWEG Y348 ELSOB DCT RIMET T157 KERAX KERAX5D |
| Aircraft | A319/M-SDE2E3FGIJ1LORWXYZ/HB1 |
Departure
| Time | 2026-05-05 05:24 |
|---|---|
| Airport | Westerland Sylt Airport (EDXW) |
Arrival
| Time | 2026-05-05 06:21 |
|---|---|
| Airport | Frankfurt Main Airport (EDDF) |
| Time | Latitude | Longitude | Altitude | Speed | Heading |
|---|---|---|---|---|---|
| 2026-05-05 04:30 | 54.91351 | 8.33117 | 29 ft | 0 kts | 270° |
| 2026-05-05 05:14 | 54.91351 | 8.33127 | 29 ft | 4 kts | 272° |
| 2026-05-05 05:14 | 54.91348 | 8.33173 | 29 ft | 4 kts | 279° |
| 2026-05-05 05:14 | 54.91349 | 8.33212 | 29 ft | 2 kts | 232° |
| 2026-05-05 05:14 | 54.91366 | 8.33241 | 29 ft | 4 kts | 203° |
| 2026-05-05 05:15 | 54.91388 | 8.33249 | 29 ft | 1 kts | 180° |
| 2026-05-05 05:15 | 54.91389 | 8.33249 | 29 ft | 0 kts | 180° |
| 2026-05-05 05:17 | 54.91384 | 8.33249 | 29 ft | 3 kts | 180° |
| 2026-05-05 05:17 | 54.91351 | 8.33245 | 29 ft | 7 kts | 190° |
| 2026-05-05 05:17 | 54.91293 | 8.33200 | 29 ft | 10 kts | 209° |
| 2026-05-05 05:18 | 54.91232 | 8.33179 | 32 ft | 8 kts | 180° |
| 2026-05-05 05:18 | 54.91177 | 8.33179 | 34 ft | 9 kts | 180° |
| 2026-05-05 05:18 | 54.91107 | 8.33180 | 34 ft | 12 kts | 179° |
| 2026-05-05 05:18 | 54.91023 | 8.33151 | 33 ft | 13 kts | 207° |
| 2026-05-05 05:19 | 54.90959 | 8.33097 | 34 ft | 9 kts | 175° |
| 2026-05-05 05:19 | 54.90908 | 8.33149 | 35 ft | 9 kts | 150° |
| 2026-05-05 05:19 | 54.90843 | 8.33195 | 33 ft | 11 kts | 162° |
| 2026-05-05 05:19 | 54.90758 | 8.33221 | 35 ft | 13 kts | 176° |
| 2026-05-05 05:20 | 54.90663 | 8.33232 | 35 ft | 14 kts | 176° |
| 2026-05-05 05:20 | 54.90560 | 8.33247 | 34 ft | 16 kts | 173° |
| 2026-05-05 05:20 | 54.90451 | 8.33303 | 34 ft | 17 kts | 154° |
| 2026-05-05 05:20 | 54.90352 | 8.33427 | 33 ft | 19 kts | 135° |
| 2026-05-05 05:21 | 54.90282 | 8.33609 | 31 ft | 18 kts | 114° |
| 2026-05-05 05:21 | 54.90252 | 8.33826 | 33 ft | 19 kts | 98° |
| 2026-05-05 05:21 | 54.90236 | 8.34039 | 33 ft | 16 kts | 93° |
| 2026-05-05 05:21 | 54.90245 | 8.34238 | 34 ft | 17 kts | 80° |
| 2026-05-05 05:22 | 54.90266 | 8.34442 | 35 ft | 18 kts | 79° |
| 2026-05-05 05:22 | 54.90288 | 8.34652 | 35 ft | 18 kts | 79° |
| 2026-05-05 05:22 | 54.90311 | 8.34876 | 36 ft | 19 kts | 80° |
| 2026-05-05 05:22 | 54.90331 | 8.35054 | 35 ft | 11 kts | 69° |
| 2026-05-05 05:23 | 54.90376 | 8.35163 | 37 ft | 11 kts | 50° |
| 2026-05-05 05:23 | 54.90433 | 8.35153 | 37 ft | 11 kts | 323° |
| 2026-05-05 05:23 | 54.90639 | 8.34897 | 36 ft | 76 kts | 324° |
| 2026-05-05 05:23 | 54.91278 | 8.34111 | 83 ft | 140 kts | 327° |
| 2026-05-05 05:24 | 54.92070 | 8.33136 | 750 ft | 139 kts | 327° |
| 2026-05-05 05:24 | 54.92864 | 8.32145 | 1442 ft | 147 kts | 327° |
| 2026-05-05 05:24 | 54.93763 | 8.31034 | 1938 ft | 167 kts | 327° |
| 2026-05-05 05:24 | 54.94767 | 8.29788 | 2481 ft | 188 kts | 326° |
| 2026-05-05 05:25 | 54.95845 | 8.28444 | 3369 ft | 192 kts | 326° |
| 2026-05-05 05:25 | 54.96932 | 8.27083 | 4313 ft | 195 kts | 325° |
| 2026-05-05 05:25 | 54.98007 | 8.25568 | 5070 ft | 204 kts | 305° |
| 2026-05-05 05:25 | 54.98391 | 8.23202 | 5806 ft | 211 kts | 264° |
| 2026-05-05 05:26 | 54.97809 | 8.20852 | 6656 ft | 216 kts | 233° |
| 2026-05-05 05:26 | 54.96883 | 8.18797 | 7600 ft | 216 kts | 236° |
| 2026-05-05 05:26 | 54.96015 | 8.16644 | 8510 ft | 218 kts | 237° |
| 2026-05-05 05:26 | 54.95138 | 8.14469 | 9422 ft | 222 kts | 232° |
| 2026-05-05 05:27 | 54.93851 | 8.12951 | 10232 ft | 234 kts | 200° |
| 2026-05-05 05:27 | 54.92141 | 8.12729 | 10663 ft | 266 kts | 172° |
| 2026-05-05 05:27 | 54.88288 | 8.15019 | 11424 ft | 318 kts | 162° |
| 2026-05-05 05:28 | 54.86141 | 8.16416 | 11790 ft | 340 kts | 162° |
| 2026-05-05 05:28 | 54.83894 | 8.17889 | 12469 ft | 349 kts | 163° |
| 2026-05-05 05:28 | 54.81604 | 8.19382 | 13295 ft | 354 kts | 163° |
| 2026-05-05 05:28 | 54.79280 | 8.20879 | 14076 ft | 358 kts | 163° |
| 2026-05-05 05:29 | 54.76926 | 8.22373 | 14813 ft | 362 kts | 164° |
| 2026-05-05 05:29 | 54.74545 | 8.23871 | 15564 ft | 366 kts | 164° |
| 2026-05-05 05:29 | 54.72141 | 8.25379 | 16292 ft | 369 kts | 164° |
| 2026-05-05 05:29 | 54.69715 | 8.26897 | 17046 ft | 373 kts | 164° |
| 2026-05-05 05:30 | 54.67299 | 8.28409 | 17784 ft | 376 kts | 165° |
| 2026-05-05 05:30 | 54.64829 | 8.29959 | 18490 ft | 380 kts | 165° |
| 2026-05-05 05:30 | 54.62338 | 8.31522 | 19141 ft | 383 kts | 165° |
| 2026-05-05 05:30 | 54.59825 | 8.33092 | 19795 ft | 386 kts | 165° |
| 2026-05-05 05:31 | 54.57293 | 8.34673 | 20456 ft | 389 kts | 165° |
| 2026-05-05 05:31 | 54.54741 | 8.36268 | 21110 ft | 392 kts | 165° |
| 2026-05-05 05:31 | 54.52170 | 8.37877 | 21767 ft | 395 kts | 165° |
| 2026-05-05 05:31 | 54.49577 | 8.39497 | 22390 ft | 398 kts | 165° |
| 2026-05-05 05:32 | 54.46967 | 8.41123 | 23007 ft | 401 kts | 165° |
| 2026-05-05 05:32 | 54.44333 | 8.42757 | 23583 ft | 403 kts | 165° |
| 2026-05-05 05:32 | 54.41689 | 8.44396 | 24103 ft | 405 kts | 165° |
| 2026-05-05 05:32 | 54.39027 | 8.46045 | 24601 ft | 408 kts | 165° |
| 2026-05-05 05:33 | 54.36351 | 8.47704 | 25081 ft | 410 kts | 165° |
| 2026-05-05 05:33 | 54.33655 | 8.49372 | 25558 ft | 413 kts | 165° |
| 2026-05-05 05:33 | 54.30943 | 8.51045 | 26017 ft | 416 kts | 165° |
| 2026-05-05 05:33 | 54.28212 | 8.52724 | 26481 ft | 418 kts | 165° |
| 2026-05-05 05:34 | 54.25465 | 8.54407 | 26962 ft | 420 kts | 165° |
| 2026-05-05 05:34 | 54.22708 | 8.56093 | 27460 ft | 422 kts | 165° |
| 2026-05-05 05:34 | 54.19938 | 8.57786 | 27928 ft | 424 kts | 165° |
| 2026-05-05 05:34 | 54.17152 | 8.59492 | 28375 ft | 426 kts | 165° |
| 2026-05-05 05:35 | 54.14355 | 8.61204 | 28837 ft | 429 kts | 165° |
| 2026-05-05 05:35 | 54.11539 | 8.62925 | 29267 ft | 431 kts | 165° |
| 2026-05-05 05:35 | 54.08708 | 8.64650 | 29685 ft | 433 kts | 165° |
| 2026-05-05 05:35 | 54.05862 | 8.66379 | 30091 ft | 436 kts | 165° |
| 2026-05-05 05:36 | 54.02999 | 8.68120 | 30422 ft | 438 kts | 165° |
| 2026-05-05 05:36 | 54.00121 | 8.69872 | 30748 ft | 441 kts | 165° |
| 2026-05-05 05:36 | 53.97226 | 8.71631 | 31060 ft | 443 kts | 165° |
| 2026-05-05 05:36 | 53.94315 | 8.73394 | 31393 ft | 445 kts | 165° |
| 2026-05-05 05:37 | 53.91400 | 8.75159 | 31823 ft | 444 kts | 164° |
| 2026-05-05 05:37 | 53.88492 | 8.76917 | 32279 ft | 443 kts | 164° |
| 2026-05-05 05:37 | 53.85589 | 8.78665 | 32727 ft | 443 kts | 164° |
| 2026-05-05 05:37 | 53.82686 | 8.80411 | 33164 ft | 442 kts | 164° |
| 2026-05-05 05:38 | 53.79785 | 8.82158 | 33597 ft | 442 kts | 164° |
| 2026-05-05 05:38 | 53.76887 | 8.83900 | 34028 ft | 442 kts | 164° |
| 2026-05-05 05:38 | 53.73989 | 8.85640 | 34392 ft | 442 kts | 164° |
| 2026-05-05 05:38 | 53.71130 | 8.87355 | 34745 ft | 442 kts | 164° |
| 2026-05-05 05:39 | 53.68231 | 8.89087 | 35095 ft | 442 kts | 164° |
| 2026-05-05 05:39 | 53.65334 | 8.90810 | 35445 ft | 441 kts | 165° |
| 2026-05-05 05:39 | 53.62439 | 8.92526 | 35809 ft | 440 kts | 165° |
| 2026-05-05 05:39 | 53.59548 | 8.94237 | 36139 ft | 440 kts | 165° |
| 2026-05-05 05:40 | 53.56657 | 8.95949 | 36446 ft | 441 kts | 165° |
| 2026-05-05 05:40 | 53.53766 | 8.97666 | 36740 ft | 441 kts | 164° |
| 2026-05-05 05:40 | 53.50874 | 8.99387 | 37018 ft | 441 kts | 164° |
| 2026-05-05 05:40 | 53.47977 | 9.01109 | 37298 ft | 442 kts | 164° |
| 2026-05-05 05:41 | 53.45081 | 9.02823 | 37587 ft | 442 kts | 164° |
| 2026-05-05 05:41 | 53.42179 | 9.04534 | 37891 ft | 442 kts | 165° |
| 2026-05-05 05:41 | 53.39274 | 9.06245 | 38157 ft | 443 kts | 164° |
| 2026-05-05 05:41 | 53.36368 | 9.07957 | 38413 ft | 443 kts | 164° |
| 2026-05-05 05:42 | 53.33462 | 9.09669 | 38648 ft | 443 kts | 164° |
| 2026-05-05 05:42 | 53.30549 | 9.11387 | 38838 ft | 444 kts | 164° |
| 2026-05-05 05:42 | 53.24717 | 9.14828 | 38956 ft | 445 kts | 164° |
| 2026-05-05 05:43 | 53.18914 | 9.18226 | 38953 ft | 445 kts | 164° |
| 2026-05-05 05:43 | 53.13075 | 9.21631 | 38938 ft | 445 kts | 165° |
| 2026-05-05 05:44 | 53.07236 | 9.25021 | 38946 ft | 444 kts | 165° |
| 2026-05-05 05:44 | 53.01401 | 9.28407 | 38946 ft | 444 kts | 165° |
| 2026-05-05 05:45 | 52.95560 | 9.31787 | 38947 ft | 445 kts | 165° |
| 2026-05-05 05:45 | 52.89711 | 9.35168 | 38944 ft | 445 kts | 165° |
| 2026-05-05 05:46 | 52.83864 | 9.38535 | 38928 ft | 445 kts | 165° |
| 2026-05-05 05:46 | 52.78009 | 9.41891 | 38931 ft | 445 kts | 165° |
| 2026-05-05 05:47 | 52.72151 | 9.45230 | 38931 ft | 445 kts | 165° |
| 2026-05-05 05:47 | 52.66313 | 9.48561 | 38927 ft | 446 kts | 165° |
| 2026-05-05 05:48 | 52.60457 | 9.51905 | 38921 ft | 445 kts | 165° |
| 2026-05-05 05:48 | 52.54602 | 9.55233 | 38927 ft | 445 kts | 165° |
| 2026-05-05 05:49 | 52.48746 | 9.58541 | 38931 ft | 445 kts | 165° |
| 2026-05-05 05:49 | 52.42885 | 9.61842 | 38935 ft | 445 kts | 165° |
| 2026-05-05 05:50 | 52.37026 | 9.65139 | 38922 ft | 445 kts | 165° |
| 2026-05-05 05:50 | 52.31230 | 9.68389 | 38930 ft | 444 kts | 165° |
| 2026-05-05 05:51 | 52.25385 | 9.71662 | 38933 ft | 444 kts | 165° |
| 2026-05-05 05:51 | 52.19543 | 9.74917 | 38933 ft | 443 kts | 165° |
| 2026-05-05 05:52 | 52.13706 | 9.78160 | 38930 ft | 443 kts | 165° |
| 2026-05-05 05:52 | 52.07870 | 9.81392 | 38927 ft | 443 kts | 165° |
| 2026-05-05 05:53 | 52.02048 | 9.84622 | 38919 ft | 442 kts | 165° |
| 2026-05-05 05:53 | 51.96236 | 9.87835 | 38931 ft | 441 kts | 166° |
| 2026-05-05 05:54 | 51.90435 | 9.91026 | 38936 ft | 440 kts | 166° |
| 2026-05-05 05:54 | 51.84642 | 9.94206 | 38917 ft | 439 kts | 165° |
| 2026-05-05 05:55 | 51.78854 | 9.97371 | 38924 ft | 439 kts | 166° |
| 2026-05-05 05:55 | 51.73072 | 10.00518 | 38928 ft | 438 kts | 166° |
| 2026-05-05 05:56 | 51.67294 | 10.03660 | 38921 ft | 438 kts | 166° |
| 2026-05-05 05:56 | 51.61520 | 10.06790 | 38922 ft | 438 kts | 166° |
| 2026-05-05 05:57 | 51.55747 | 10.09916 | 38924 ft | 438 kts | 165° |
| 2026-05-05 05:57 | 51.49989 | 10.13037 | 38552 ft | 436 kts | 166° |
| 2026-05-05 05:58 | 51.47117 | 10.14585 | 37856 ft | 435 kts | 166° |
| 2026-05-05 05:58 | 51.44254 | 10.16118 | 37180 ft | 434 kts | 166° |
| 2026-05-05 05:58 | 51.41390 | 10.17650 | 36522 ft | 433 kts | 166° |
| 2026-05-05 05:58 | 51.38534 | 10.19168 | 35848 ft | 432 kts | 168° |
| 2026-05-05 05:59 | 51.35622 | 10.20111 | 35158 ft | 423 kts | 180° |
| 2026-05-05 05:59 | 51.32710 | 10.20074 | 34459 ft | 416 kts | 192° |
| 2026-05-05 05:59 | 51.29911 | 10.19101 | 33727 ft | 409 kts | 202° |
| 2026-05-05 05:59 | 51.27310 | 10.17339 | 32842 ft | 406 kts | 209° |
| 2026-05-05 06:00 | 51.24751 | 10.15396 | 31890 ft | 409 kts | 209° |
| 2026-05-05 06:00 | 51.22166 | 10.13447 | 30948 ft | 412 kts | 209° |
| 2026-05-05 06:00 | 51.20453 | 10.12159 | 30499 ft | 409 kts | 209° |
| 2026-05-05 06:00 | 51.17886 | 10.10235 | 29806 ft | 406 kts | 208° |
| 2026-05-05 06:01 | 51.15343 | 10.08331 | 29040 ft | 402 kts | 208° |
| 2026-05-05 06:01 | 51.12821 | 10.06444 | 28277 ft | 399 kts | 208° |
| 2026-05-05 06:01 | 51.10313 | 10.04565 | 27525 ft | 398 kts | 208° |
| 2026-05-05 06:01 | 51.07818 | 10.02697 | 26806 ft | 395 kts | 208° |
| 2026-05-05 06:02 | 51.05337 | 10.00843 | 26127 ft | 393 kts | 208° |
| 2026-05-05 06:02 | 51.02871 | 9.99000 | 25459 ft | 390 kts | 208° |
| 2026-05-05 06:02 | 51.00568 | 9.96800 | 24816 ft | 384 kts | 219° |
| 2026-05-05 06:02 | 50.98437 | 9.94253 | 24193 ft | 383 kts | 219° |
| 2026-05-05 06:03 | 50.96315 | 9.91718 | 23592 ft | 381 kts | 219° |
| 2026-05-05 06:03 | 50.94201 | 9.89192 | 22943 ft | 380 kts | 219° |
| 2026-05-05 06:03 | 50.92098 | 9.86681 | 22355 ft | 377 kts | 219° |
| 2026-05-05 06:03 | 50.90010 | 9.84189 | 21799 ft | 375 kts | 218° |
| 2026-05-05 06:04 | 50.87935 | 9.81711 | 21267 ft | 372 kts | 218° |
| 2026-05-05 06:04 | 50.85873 | 9.79257 | 20769 ft | 369 kts | 218° |
| 2026-05-05 06:04 | 50.83855 | 9.76866 | 20276 ft | 366 kts | 218° |
| 2026-05-05 06:04 | 50.81828 | 9.74462 | 19784 ft | 363 kts | 218° |
| 2026-05-05 06:05 | 50.79819 | 9.72077 | 19304 ft | 360 kts | 218° |
| 2026-05-05 06:05 | 50.77827 | 9.69713 | 18817 ft | 357 kts | 218° |
| 2026-05-05 06:05 | 50.75851 | 9.67370 | 18337 ft | 354 kts | 218° |
| 2026-05-05 06:05 | 50.73892 | 9.65053 | 17798 ft | 351 kts | 218° |
| 2026-05-05 06:06 | 50.71943 | 9.62755 | 17248 ft | 348 kts | 218° |
| 2026-05-05 06:06 | 50.70007 | 9.60477 | 16693 ft | 346 kts | 218° |
| 2026-05-05 06:06 | 50.68083 | 9.58209 | 16159 ft | 344 kts | 217° |
| 2026-05-05 06:06 | 50.66169 | 9.55952 | 15624 ft | 343 kts | 217° |
| 2026-05-05 06:07 | 50.64265 | 9.53707 | 15101 ft | 341 kts | 217° |
| 2026-05-05 06:07 | 50.62368 | 9.51480 | 14576 ft | 340 kts | 217° |
| 2026-05-05 06:07 | 50.60475 | 9.49265 | 14067 ft | 338 kts | 217° |
| 2026-05-05 06:07 | 50.58592 | 9.47063 | 13544 ft | 337 kts | 217° |
| 2026-05-05 06:08 | 50.56718 | 9.44869 | 12983 ft | 334 kts | 217° |
| 2026-05-05 06:08 | 50.54862 | 9.42695 | 12475 ft | 331 kts | 217° |
| 2026-05-05 06:08 | 50.53026 | 9.40542 | 11969 ft | 328 kts | 217° |
| 2026-05-05 06:08 | 50.51207 | 9.38413 | 11452 ft | 325 kts | 217° |
| 2026-05-05 06:09 | 50.49403 | 9.36300 | 10984 ft | 322 kts | 217° |
| 2026-05-05 06:09 | 50.47608 | 9.34197 | 10795 ft | 321 kts | 217° |
| 2026-05-05 06:09 | 50.45827 | 9.32115 | 10266 ft | 319 kts | 216° |
| 2026-05-05 06:09 | 50.44055 | 9.30048 | 9808 ft | 314 kts | 216° |
| 2026-05-05 06:10 | 50.42339 | 9.28055 | 9682 ft | 299 kts | 216° |
| 2026-05-05 06:10 | 50.40701 | 9.26160 | 9554 ft | 286 kts | 216° |
| 2026-05-05 06:10 | 50.39131 | 9.24346 | 9371 ft | 276 kts | 217° |
| 2026-05-05 06:10 | 50.37596 | 9.22574 | 9031 ft | 272 kts | 216° |
| 2026-05-05 06:11 | 50.36079 | 9.20825 | 8642 ft | 270 kts | 217° |
| 2026-05-05 06:11 | 50.34573 | 9.19083 | 8244 ft | 268 kts | 217° |
| 2026-05-05 06:11 | 50.33078 | 9.17352 | 7850 ft | 266 kts | 216° |
| 2026-05-05 06:11 | 50.31592 | 9.15628 | 7442 ft | 265 kts | 216° |
| 2026-05-05 06:12 | 50.30119 | 9.13920 | 7051 ft | 263 kts | 216° |
| 2026-05-05 06:12 | 50.28653 | 9.12225 | 6662 ft | 261 kts | 216° |
| 2026-05-05 06:12 | 50.27191 | 9.10543 | 6260 ft | 260 kts | 216° |
| 2026-05-05 06:12 | 50.25743 | 9.08879 | 5913 ft | 256 kts | 216° |
| 2026-05-05 06:13 | 50.24403 | 9.07111 | 5645 ft | 251 kts | 223° |
| 2026-05-05 06:13 | 50.23160 | 9.05216 | 5390 ft | 249 kts | 224° |
| 2026-05-05 06:13 | 50.21925 | 9.03313 | 5139 ft | 249 kts | 224° |
| 2026-05-05 06:13 | 50.20690 | 9.01410 | 5008 ft | 250 kts | 224° |
| 2026-05-05 06:14 | 50.19453 | 8.99505 | 5005 ft | 250 kts | 225° |
| 2026-05-05 06:14 | 50.18274 | 8.97558 | 5004 ft | 250 kts | 221° |
| 2026-05-05 06:14 | 50.16923 | 8.95855 | 5000 ft | 250 kts | 217° |
| 2026-05-05 06:14 | 50.15593 | 8.94179 | 4986 ft | 250 kts | 220° |
| 2026-05-05 06:15 | 50.14349 | 8.92383 | 4963 ft | 239 kts | 227° |
| 2026-05-05 06:15 | 50.13575 | 8.90206 | 4935 ft | 223 kts | 246° |
| 2026-05-05 06:15 | 50.13006 | 8.88047 | 4920 ft | 209 kts | 246° |
| 2026-05-05 06:15 | 50.12451 | 8.85948 | 4719 ft | 205 kts | 246° |
| 2026-05-05 06:16 | 50.11927 | 8.83942 | 4535 ft | 199 kts | 246° |
| 2026-05-05 06:16 | 50.11416 | 8.81972 | 4257 ft | 194 kts | 246° |
| 2026-05-05 06:16 | 50.10913 | 8.80031 | 3971 ft | 192 kts | 246° |
| 2026-05-05 06:16 | 50.10426 | 8.78098 | 3704 ft | 191 kts | 249° |
| 2026-05-05 06:17 | 50.09992 | 8.76159 | 3436 ft | 190 kts | 249° |
| 2026-05-05 06:17 | 50.09546 | 8.74256 | 3170 ft | 188 kts | 249° |
| 2026-05-05 06:17 | 50.09104 | 8.72354 | 2925 ft | 185 kts | 249° |
| 2026-05-05 06:17 | 50.08660 | 8.70500 | 2695 ft | 181 kts | 249° |
| 2026-05-05 06:18 | 50.08225 | 8.68682 | 2468 ft | 179 kts | 250° |
| 2026-05-05 06:18 | 50.07806 | 8.66892 | 2217 ft | 172 kts | 250° |
| 2026-05-05 06:18 | 50.07406 | 8.65177 | 1974 ft | 165 kts | 249° |
| 2026-05-05 06:18 | 50.07019 | 8.63589 | 1777 ft | 148 kts | 249° |
| 2026-05-05 06:19 | 50.06673 | 8.62161 | 1569 ft | 135 kts | 249° |
| 2026-05-05 06:19 | 50.06345 | 8.60828 | 1380 ft | 131 kts | 249° |
| 2026-05-05 06:19 | 50.06031 | 8.59491 | 1214 ft | 132 kts | 250° |
| 2026-05-05 06:19 | 50.05714 | 8.58149 | 1051 ft | 132 kts | 251° |
| 2026-05-05 06:20 | 50.05398 | 8.56814 | 873 ft | 130 kts | 250° |
| 2026-05-05 06:20 | 50.05089 | 8.55498 | 690 ft | 129 kts | 250° |
| 2026-05-05 06:20 | 50.04780 | 8.54196 | 518 ft | 127 kts | 250° |
| 2026-05-05 06:20 | 50.04475 | 8.52919 | 359 ft | 121 kts | 251° |
| 2026-05-05 06:21 | 50.04227 | 8.51883 | 338 ft | 80 kts | 250° |
| 2026-05-05 06:21 | 50.04088 | 8.51301 | 330 ft | 37 kts | 249° |
| 2026-05-05 06:21 | 50.03976 | 8.51012 | 327 ft | 31 kts | 226° |
| 2026-05-05 06:21 | 50.03844 | 8.50839 | 327 ft | 16 kts | 211° |
| 2026-05-05 06:22 | 50.03778 | 8.50892 | 334 ft | 12 kts | 92° |
| 2026-05-05 06:22 | 50.03813 | 8.51055 | 334 ft | 20 kts | 69° |
| 2026-05-05 06:22 | 50.03864 | 8.51270 | 336 ft | 22 kts | 70° |
| 2026-05-05 06:22 | 50.03918 | 8.51498 | 334 ft | 23 kts | 69° |
| 2026-05-05 06:23 | 50.03975 | 8.51733 | 335 ft | 24 kts | 69° |
| 2026-05-05 06:23 | 50.04033 | 8.51971 | 337 ft | 23 kts | 69° |
| 2026-05-05 06:23 | 50.04088 | 8.52205 | 350 ft | 23 kts | 70° |
| 2026-05-05 06:23 | 50.04142 | 8.52432 | 353 ft | 22 kts | 69° |
| 2026-05-05 06:24 | 50.04195 | 8.52651 | 349 ft | 21 kts | 70° |
| 2026-05-05 06:24 | 50.04246 | 8.52864 | 358 ft | 21 kts | 70° |
| 2026-05-05 06:24 | 50.04296 | 8.53075 | 355 ft | 21 kts | 69° |
| 2026-05-05 06:24 | 50.04348 | 8.53291 | 367 ft | 21 kts | 70° |
| 2026-05-05 06:25 | 50.04393 | 8.53494 | 375 ft | 19 kts | 78° |
| 2026-05-05 06:25 | 50.04408 | 8.53705 | 375 ft | 20 kts | 84° |
| 2026-05-05 06:25 | 50.04423 | 8.53929 | 376 ft | 21 kts | 84° |
| 2026-05-05 06:25 | 50.04439 | 8.54165 | 375 ft | 23 kts | 84° |
| 2026-05-05 06:26 | 50.04453 | 8.54416 | 371 ft | 24 kts | 90° |
| 2026-05-05 06:26 | 50.04397 | 8.54669 | 366 ft | 26 kts | 129° |
| 2026-05-05 06:26 | 50.04261 | 8.54802 | 355 ft | 22 kts | 160° |
| 2026-05-05 06:26 | 50.04108 | 8.54888 | 350 ft | 24 kts | 159° |
| 2026-05-05 06:27 | 50.03960 | 8.54974 | 352 ft | 19 kts | 160° |
| 2026-05-05 06:27 | 50.03863 | 8.55172 | 351 ft | 14 kts | 69° |
| 2026-05-05 06:27 | 50.03903 | 8.55341 | 353 ft | 20 kts | 70° |
| 2026-05-05 06:28 | 50.03957 | 8.55567 | 354 ft | 25 kts | 69° |
| 2026-05-05 06:28 | 50.04021 | 8.55834 | 351 ft | 26 kts | 69° |
| 2026-05-05 06:28 | 50.04085 | 8.56101 | 358 ft | 26 kts | 69° |
| 2026-05-05 06:28 | 50.04149 | 8.56369 | 357 ft | 26 kts | 70° |
| 2026-05-05 06:29 | 50.04212 | 8.56634 | 363 ft | 26 kts | 69° |
| 2026-05-05 06:29 | 50.04273 | 8.56887 | 361 ft | 25 kts | 69° |
| 2026-05-05 06:29 | 50.04333 | 8.57142 | 363 ft | 25 kts | 69° |
| 2026-05-05 06:29 | 50.04394 | 8.57396 | 361 ft | 25 kts | 70° |
| 2026-05-05 06:30 | 50.04455 | 8.57650 | 365 ft | 25 kts | 69° |
| 2026-05-05 06:30 | 50.04516 | 8.57906 | 367 ft | 26 kts | 70° |
| 2026-05-05 06:30 | 50.04581 | 8.58175 | 365 ft | 26 kts | 69° |
| 2026-05-05 06:30 | 50.04641 | 8.58426 | 369 ft | 25 kts | 70° |
| 2026-05-05 06:31 | 50.04702 | 8.58682 | 369 ft | 25 kts | 67° |
| 2026-05-05 06:31 | 50.04745 | 8.58846 | 371 ft | 11 kts | 71° |
| 2026-05-05 06:31 | 50.04779 | 8.58869 | 367 ft | 7 kts | 333° |
| 2026-05-05 06:31 | 50.04826 | 8.58839 | 367 ft | 3 kts | 340° |
| 2026-05-05 06:32 | 50.04831 | 8.58836 | 368 ft | 0 kts | 340° |